Time;durP1;ratioP1;P1;durP2;ratioP2;P2;SDS_P1;SDS_P2;PMS_P1;PMS_P2;Temp;Humidity;BMP_temperature;BMP_pressure;BME280_temperature;BME280_humidity;BME280_pressure;Samples;Min_cycle;Max_cycle;Signal;HPM_P1;HPM_P2
2021/01/29 00:01:48;;;;;;;1.92;1.10;;;;;;;9.58;84.34;99276.50;4991544;28;20061;-73
2021/01/29 00:04:14;;;;;;;3.10;1.20;;;;;;;9.58;84.16;99265.94;4990441;28;20065;-73
2021/01/29 00:06:39;;;;;;;2.95;1.05;;;;;;;9.57;84.27;99259.84;4991564;28;20030;-73
2021/01/29 00:09:05;;;;;;;2.67;1.10;;;;;;;9.57;84.24;99264.31;4991007;28;20042;-73
2021/01/29 00:11:30;;;;;;;2.55;1.23;;;;;;;9.51;84.38;99257.09;4991165;28;20042;-73
2021/01/29 00:13:56;;;;;;;1.70;1.05;;;;;;;9.38;86.15;99255.03;4990478;28;20096;-73
2021/01/29 00:16:21;;;;;;;1.83;1.10;;;;;;;9.29;86.30;99242.91;4989977;28;20546;-73
2021/01/29 00:18:46;;;;;;;1.35;0.95;;;;;;;9.30;85.45;99242.72;4994571;28;20042;-73
2021/01/29 00:21:11;;;;;;;2.65;1.10;;;;;;;9.35;85.11;99236.94;4990487;28;20046;-73
2021/01/29 00:23:37;;;;;;;2.33;1.30;;;;;;;9.35;85.19;99218.47;4985033;28;20130;-73
2021/01/29 00:26:02;;;;;;;1.33;0.80;;;;;;;9.32;85.65;99222.28;4991891;28;20140;-74
2021/01/29 00:28:27;;;;;;;1.38;0.90;;;;;;;9.35;85.63;99221.91;4991571;28;20057;-73
2021/01/29 00:30:54;;;;;;;2.85;1.10;;;;;;;9.36;85.86;99213.00;4989779;28;20030;-73
2021/01/29 00:33:22;;;;;;;4.40;1.38;;;;;;;9.35;86.07;99214.00;4989942;28;20043;-73
2021/01/29 00:35:47;;;;;;;2.58;1.30;;;;;;;9.32;86.29;99210.91;4990378;28;20037;-73
2021/01/29 00:38:13;;;;;;;3.15;1.20;;;;;;;9.35;86.32;99208.72;4989087;28;20034;-73
2021/01/29 00:40:38;;;;;;;3.10;1.20;;;;;;;9.42;86.32;99197.47;4991581;28;20479;-73
2021/01/29 00:43:05;;;;;;;1.48;0.90;;;;;;;9.36;86.96;99196.34;4990497;28;20415;-73
2021/01/29 00:45:33;;;;;;;2.05;1.10;;;;;;;9.34;86.86;99199.19;4989885;28;20073;-73
2021/01/29 00:47:59;;;;;;;2.63;1.10;;;;;;;9.40;87.00;99194.19;4990159;28;20027;-73
2021/01/29 00:50:24;;;;;;;3.42;1.10;;;;;;;9.40;87.13;99181.81;4989647;28;20042;-73
2021/01/29 00:52:50;;;;;;;4.00;1.13;;;;;;;9.51;86.89;99170.84;4989765;28;20404;-73
2021/01/29 00:55:16;;;;;;;3.90;1.20;;;;;;;9.50;86.93;99169.19;4984288;28;20403;-73
2021/01/29 00:57:42;;;;;;;2.60;1.08;;;;;;;9.53;86.75;99163.56;4989430;28;20077;-73
2021/01/29 01:00:09;;;;;;;2.20;0.90;;;;;;;9.45;87.31;99155.72;4988716;28;20443;-73
2021/01/29 01:02:35;;;;;;;2.90;1.45;;;;;;;9.53;87.00;99150.38;4989200;28;20416;-73
2021/01/29 01:05:00;;;;;;;2.55;1.30;;;;;;;9.52;86.82;99146.09;4990056;28;20048;-73
2021/01/29 01:07:26;;;;;;;1.92;1.10;;;;;;;9.52;86.81;99146.09;4985130;28;20558;-73
2021/01/29 01:09:51;;;;;;;2.92;1.10;;;;;;;9.54;86.63;99154.66;4990600;28;20129;-73
2021/01/29 01:12:16;;;;;;;3.53;1.30;;;;;;;9.58;86.27;99136.63;4987606;28;20519;-73
2021/01/29 01:14:42;;;;;;;2.78;1.05;;;;;;;9.56;86.29;99128.91;4987385;28;20030;-73
2021/01/29 01:17:07;;;;;;;4.40;1.30;;;;;;;9.54;86.21;99133.53;4990384;28;20403;-73
2021/01/29 01:19:35;;;;;;;1.70;1.05;;;;;;;9.56;86.36;99128.91;4990286;28;20035;-73
2021/01/29 01:22:04;;;;;;;2.88;1.27;;;;;;;9.51;86.71;99126.00;4990598;28;20109;-73
2021/01/29 01:24:30;;;;;;;2.53;0.90;;;;;;;9.55;86.14;99121.97;4986756;28;20109;-73
2021/01/29 01:26:55;;;;;;;3.00;1.10;;;;;;;9.55;86.10;99131.72;4989286;28;20118;-73
2021/01/29 01:29:20;;;;;;;4.53;1.30;;;;;;;9.55;85.84;99114.06;4990176;28;20092;-73
2021/01/29 01:31:47;;;;;;;3.35;1.20;;;;;;;9.59;85.53;99105.81;4989704;28;20065;-73
2021/01/29 01:34:12;;;;;;;4.93;1.50;;;;;;;9.63;85.07;99107.91;4989878;28;20045;-73
2021/01/29 01:36:37;;;;;;;3.15;1.23;;;;;;;9.65;85.53;99105.88;4990065;28;20030;-73
2021/01/29 01:39:03;;;;;;;2.53;1.20;;;;;;;9.60;85.61;99100.31;4987951;28;20030;-73
2021/01/29 01:41:28;;;;;;;3.08;1.30;;;;;;;9.60;85.36;99096.88;4988878;28;20061;-73
2021/01/29 01:43:53;;;;;;;3.00;1.05;;;;;;;9.60;85.48;99092.41;5004618;28;20030;-73
2021/01/29 01:46:20;;;;;;;2.55;1.15;;;;;;;9.64;85.55;99087.59;4988557;28;20042;-73
2021/01/29 01:49:09;;;;;;;2.17;1.10;;;;;;;9.59;85.73;99069.66;4989682;28;20066;-73
2021/01/29 01:51:40;;;;;;;4.07;1.33;;;;;;;9.60;85.40;99067.84;4990074;28;20038;-73
2021/01/29 01:54:18;;;;;;;2.15;1.00;;;;;;;9.54;85.93;99064.13;4990381;28;20045;-73
2021/01/29 01:56:49;;;;;;;4.47;1.30;;;;;;;9.51;86.34;99052.09;4989959;28;20389;-73
2021/01/29 01:59:19;;;;;;;2.63;1.40;;;;;;;9.44;86.74;99048.56;4995536;28;20117;-73
2021/01/29 02:01:46;;;;;;;3.53;1.38;;;;;;;9.38;86.82;99045.81;4996609;28;20035;-73
2021/01/29 02:04:13;;;;;;;4.10;1.20;;;;;;;9.31;87.65;99043.88;4989790;28;20065;-73
2021/01/29 02:07:14;;;;;;;4.65;1.60;;;;;;;9.32;87.70;99034.97;4987859;28;20085;-73
2021/01/29 02:09:42;;;;;;;3.78;1.52;;;;;;;9.37;87.58;99029.16;4972717;28;20042;-74
2021/01/29 02:12:08;;;;;;;3.22;1.33;;;;;;;9.32;87.91;99023.63;4991720;28;20039;-73
2021/01/29 02:14:33;;;;;;;3.88;1.60;;;;;;;9.41;87.57;99029.63;4993521;28;20536;-73
2021/01/29 02:17:18;;;;;;;4.28;1.65;;;;;;;9.42;87.68;99012.81;4990885;28;20045;-73
2021/01/29 02:19:56;;;;;;;3.63;1.58;;;;;;;9.22;89.09;99008.03;5005281;28;20499;-74
2021/01/29 02:22:40;;;;;;;3.33;1.70;;;;;;;9.20;88.92;99007.41;4992945;28;20411;-75
2021/01/29 02:25:44;;;;;;;3.85;1.60;;;;;;;9.23;89.16;99006.25;4993464;28;20454;-76
2021/01/29 02:28:30;;;;;;;5.03;2.20;;;;;;;9.22;89.31;98994.03;4990236;28;20038;-75
2021/01/29 02:31:35;;;;;;;5.75;2.28;;;;;;;9.19;89.69;98989.94;4994145;28;20073;-75
2021/01/29 02:34:15;;;;;;;3.80;2.13;;;;;;;9.06;90.04;98977.38;4992447;28;20061;-75
2021/01/29 02:37:03;;;;;;;6.97;3.13;;;;;;;9.12;89.77;98962.66;4993671;28;20101;-75
2021/01/29 02:39:45;;;;;;;5.97;2.65;;;;;;;9.02;90.29;98957.66;4994195;28;20117;-75
2021/01/29 02:42:32;;;;;;;4.85;2.78;;;;;;;9.18;90.12;98953.22;4996076;28;20046;-75
2021/01/29 02:45:27;;;;;;;4.20;3.00;;;;;;;9.06;90.77;98956.28;4991734;28;20429;-75
2021/01/29 02:48:03;;;;;;;6.43;3.80;;;;;;;9.12;90.70;98939.72;4991524;28;20039;-75
2021/01/29 02:50:58;;;;;;;6.43;3.42;;;;;;;9.09;90.69;98920.84;4977445;28;20038;-75
2021/01/29 02:53:39;;;;;;;6.35;3.67;;;;;;;9.09;90.96;98905.81;4994094;28;20042;-75
2021/01/29 02:56:38;;;;;;;4.60;3.53;;;;;;;9.12;91.25;98923.09;4994285;28;20309;-75
2021/01/29 02:59:27;;;;;;;4.07;2.85;;;;;;;9.11;91.54;98909.09;4994530;28;20031;-75
2021/01/29 03:01:59;;;;;;;5.30;3.42;;;;;;;9.15;91.19;98896.34;5005504;28;20061;-75
2021/01/29 03:04:35;;;;;;;6.75;4.28;;;;;;;9.20;90.91;98893.16;4994270;28;20162;-75
2021/01/29 03:07:10;;;;;;;4.90;3.40;;;;;;;9.17;91.46;98888.28;4994229;28;20034;-75
2021/01/29 03:09:48;;;;;;;3.90;2.95;;;;;;;9.22;91.55;98881.44;4987602;28;20066;-74
2021/01/29 03:12:39;;;;;;;5.15;3.38;;;;;;;9.16;91.39;98871.63;4994667;28;20117;-75
2021/01/29 03:15:10;;;;;;;;;;;;;;;9.27;91.35;98865.06;4990150;28;20070;-74
2021/01/29 03:17:41;;;;;;;;;;;;;;;9.24;91.07;98854.88;4995161;28;19917;-74
2021/01/29 03:20:20;;;;;;;4.93;4.03;;;;;;;9.27;91.28;98850.06;4994703;28;19921;-75
2021/01/29 03:23:13;;;;;;;4.63;3.97;;;;;;;9.47;90.86;98833.66;4995143;28;20046;-76
2021/01/29 03:25:43;;;;;;;5.25;3.28;;;;;;;9.28;91.77;98837.69;4987790;28;20045;-75
2021/01/29 03:28:14;;;;;;;3.90;3.38;;;;;;;9.31;91.44;98822.31;4994846;28;20042;-75
2021/01/29 03:30:45;;;;;;;4.82;3.53;;;;;;;9.29;91.57;98826.13;4995044;28;20042;-74
2021/01/29 03:33:13;;;;;;;3.40;2.80;;;;;;;9.34;91.17;98826.41;4992687;28;20453;-75
2021/01/29 03:35:48;;;;;;;5.25;4.53;;;;;;;9.33;91.48;98817.66;4995518;28;20088;-74
2021/01/29 03:38:20;;;;;;;5.82;3.55;;;;;;;9.34;91.62;98806.13;4994336;28;20404;-74
2021/01/29 03:40:54;;;;;;;4.80;3.78;;;;;;;9.31;91.75;98805.69;4994455;28;20526;-74
2021/01/29 03:43:41;;;;;;;3.67;2.92;;;;;;;9.25;92.05;98804.59;4993715;28;20034;-74
2021/01/29 03:46:44;;;;;;;5.00;3.92;;;;;;;9.29;91.92;98797.13;4995775;28;20133;-75
2021/01/29 03:49:27;;;;;;;6.88;3.92;;;;;;;9.34;91.83;98800.84;4994072;28;20276;-75
2021/01/29 03:52:26;;;;;;;4.97;3.60;;;;;;;9.29;91.99;98799.75;4992863;28;20035;-75
2021/01/29 03:55:10;;;;;;;5.95;3.97;;;;;;;9.41;91.40;98787.72;5009341;28;20180;-74
2021/01/29 03:58:04;;;;;;;4.65;3.38;;;;;;;9.31;91.74;98784.56;4994244;28;20141;-74
2021/01/29 04:00:41;;;;;;;4.47;3.30;;;;;;;9.38;91.33;98764.34;4993989;28;20038;-75
2021/01/29 04:03:26;;;;;;;4.95;2.90;;;;;;;9.33;91.83;98756.19;4992501;28;20030;-74
2021/01/29 04:06:03;;;;;;;4.45;3.05;;;;;;;9.32;91.78;98744.03;4992895;28;20041;-74
2021/01/29 04:08:28;;;;;;;4.10;3.35;;;;;;;9.35;91.52;98741.81;4994071;28;20403;-75
2021/01/29 04:10:57;;;;;;;3.63;2.78;;;;;;;9.33;91.69;98735.09;4994992;28;20039;-74
2021/01/29 04:13:33;;;;;;;4.72;3.13;;;;;;;9.40;91.70;98714.88;4991238;28;20137;-75
2021/01/29 04:15:59;;;;;;;4.43;2.53;;;;;;;9.38;91.86;98727.44;4993342;28;20411;-74
2021/01/29 04:18:24;;;;;;;4.30;2.47;;;;;;;9.42;91.51;98725.25;4997201;28;20030;-75
2021/01/29 04:21:01;;;;;;;3.97;2.20;;;;;;;9.33;92.05;98719.25;4989879;28;20045;-75
2021/01/29 04:23:35;;;;;;;3.45;2.42;;;;;;;9.47;91.54;98715.75;5008337;28;20717;-74
2021/01/29 04:26:11;;;;;;;4.60;2.55;;;;;;;9.47;91.25;98693.81;4993825;28;20031;-76
2021/01/29 04:28:42;;;;;;;3.40;2.53;;;;;;;9.44;91.41;98688.91;4995560;28;20074;-75
2021/01/29 04:31:10;;;;;;;3.88;1.92;;;;;;;9.35;91.77;98686.41;4998121;28;20251;-75
2021/01/29 04:33:44;;;;;;;5.13;2.10;;;;;;;9.42;91.56;98677.75;4994633;28;20030;-75
2021/01/29 04:36:14;;;;;;;3.45;2.10;;;;;;;9.46;91.49;98679.81;4998808;28;20038;-75
2021/01/29 04:38:49;;;;;;;2.15;1.58;;;;;;;9.41;91.76;98673.47;4995303;28;20080;-75
2021/01/29 04:41:32;;;;;;;4.22;2.15;;;;;;;9.40;91.58;98667.38;4993719;28;20042;-75
2021/01/29 04:44:03;;;;;;;3.13;1.80;;;;;;;9.44;91.39;98665.16;4992231;28;20076;-75
2021/01/29 04:46:48;;;;;;;3.08;1.67;;;;;;;9.51;91.07;98660.75;4977924;28;20054;-75
2021/01/29 04:49:24;;;;;;;3.75;1.83;;;;;;;9.56;90.78;98659.19;4994249;28;20555;-75
2021/01/29 04:52:30;;;;;;;3.50;1.88;;;;;;;9.50;90.93;98646.75;4990696;28;20078;-75
2021/01/29 04:55:34;;;;;;;2.85;1.60;;;;;;;9.59;90.74;98641.38;4989544;28;20035;-74
2021/01/29 04:58:12;;;;;;;3.55;1.55;;;;;;;9.54;89.98;98626.91;4974622;28;20034;-75
2021/01/29 05:00:47;;;;;;;3.75;1.40;;;;;;;9.54;90.14;98621.63;4993865;28;20030;-73
2021/01/29 05:03:42;;;;;;;1.50;1.20;;;;;;;9.53;90.11;98614.75;4993184;28;20039;-75
2021/01/29 05:06:35;;;;;;;3.30;1.23;;;;;;;9.52;90.19;98628.09;4986637;28;20034;-76
2021/01/29 05:09:13;;;;;;;2.97;1.15;;;;;;;9.53;89.89;98630.56;4986276;28;20100;-76
2021/01/29 05:11:45;;;;;;;5.90;1.38;;;;;;;9.55;89.51;98628.53;5001192;28;20030;-75
2021/01/29 05:14:29;;;;;;;2.67;1.20;;;;;;;9.46;89.71;98613.88;4996496;28;20042;-72
2021/01/29 05:17:19;;;;;;;1.92;1.02;;;;;;;9.50;89.73;98607.19;4997582;28;20458;-74
2021/01/29 05:19:56;;;;;;;2.22;0.93;;;;;;;9.32;90.38;98583.13;4997540;28;20044;-75
2021/01/29 05:22:40;;;;;;;2.22;1.20;;;;;;;9.36;90.25;98581.72;4993403;28;20078;-75
2021/01/29 05:25:28;;;;;;;1.80;1.13;;;;;;;9.38;90.48;98576.25;4992097;28;20034;-75
2021/01/29 05:28:05;;;;;;;2.78;1.10;;;;;;;9.27;90.73;98569.66;4998516;28;20044;-75
2021/01/29 05:30:52;;;;;;;1.88;1.00;;;;;;;9.25;90.65;98546.16;4981944;28;20145;-74
2021/01/29 05:33:56;;;;;;;2.50;1.13;;;;;;;9.27;90.42;98556.47;5002206;28;20039;-74
2021/01/29 05:36:38;;;;;;;2.45;1.13;;;;;;;9.22;90.69;98553.63;4982775;28;20054;-75
2021/01/29 05:39:21;;;;;;;1.85;1.10;;;;;;;9.29;90.47;98543.94;4998125;28;20068;-75
2021/01/29 05:42:11;;;;;;;2.25;0.93;;;;;;;9.28;90.35;98542.31;4990944;28;20126;-75
2021/01/29 05:44:42;;;;;;;2.33;0.88;;;;;;;9.32;90.46;98543.56;4993723;28;20045;-75
2021/01/29 05:47:42;;;;;;;2.75;1.10;;;;;;;9.25;90.67;98530.31;4994586;28;20097;-75
2021/01/29 05:50:36;;;;;;;3.55;1.13;;;;;;;9.28;90.55;98524.66;4995577;28;20093;-75
2021/01/29 05:53:34;;;;;;;5.00;1.20;;;;;;;9.39;90.16;98522.47;5010316;28;20035;-75
2021/01/29 05:56:03;;;;;;;3.08;1.10;;;;;;;9.22;90.90;98516.69;4998337;28;20030;-75
2021/01/29 05:58:40;;;;;;;2.28;0.98;;;;;;;9.25;90.95;98505.78;4996736;28;20030;-76
2021/01/29 06:01:51;;;;;;;2.30;1.00;;;;;;;9.48;90.12;98510.78;4995670;28;20042;-74
2021/01/29 06:04:54;;;;;;;1.70;0.80;;;;;;;9.37;90.12;98498.97;4995363;28;20143;-75
2021/01/29 06:07:38;;;;;;;2.95;1.30;;;;;;;9.21;91.12;98496.63;4997073;28;20034;-75
2021/01/29 06:10:34;;;;;;;2.38;1.20;;;;;;;9.31;90.86;98494.44;4990313;28;20038;-74
2021/01/29 06:13:26;;;;;;;2.58;1.20;;;;;;;9.28;90.69;98485.09;5007949;28;20054;-74
2021/01/29 06:16:01;;;;;;;2.55;1.10;;;;;;;9.43;90.63;98465.69;4993120;28;20030;-74
2021/01/29 06:19:08;;;;;;;3.58;1.20;;;;;;;9.36;90.51;98468.28;5009028;28;20085;-75
2021/01/29 06:21:36;;;;;;;1.50;0.80;;;;;;;9.41;90.43;98460.59;5002410;28;20288;-76
2021/01/29 06:24:33;;;;;;;1.88;0.90;;;;;;;9.32;91.31;98475.00;4997784;28;20443;-75
2021/01/29 06:27:32;;;;;;;1.27;0.70;;;;;;;9.24;91.87;98490.94;4992722;28;20037;-74
2021/01/29 06:30:21;;;;;;;1.45;0.93;;;;;;;9.30;90.99;98504.19;4983221;28;20435;-74
2021/01/29 06:33:11;;;;;;;1.50;0.60;;;;;;;9.44;89.22;98523.56;4992038;28;20394;-74
2021/01/29 06:36:13;;;;;;;0.90;0.60;;;;;;;9.32;89.47;98525.91;4996876;28;20035;-75
2021/01/29 06:38:51;;;;;;;1.88;0.50;;;;;;;9.21;89.19;98552.00;4986832;28;20034;-75
2021/01/29 06:41:34;;;;;;;1.35;0.40;;;;;;;9.18;88.82;98558.47;4994274;28;20038;-75
2021/01/29 06:44:27;;;;;;;1.05;0.65;;;;;;;9.09;88.00;98565.69;4996341;28;20035;-74
2021/01/29 06:47:28;;;;;;;1.65;0.43;;;;;;;9.07;87.94;98580.06;4991017;28;20062;-74
2021/01/29 06:50:18;;;;;;;0.57;0.50;;;;;;;9.07;86.89;98587.97;4990340;28;20041;-74
2021/01/29 06:53:02;;;;;;;0.40;0.40;;;;;;;8.99;86.89;98593.41;4990906;28;20046;-74
2021/01/29 06:55:54;;;;;;;1.00;0.50;;;;;;;9.04;85.48;98583.91;4996854;28;20039;-74
2021/01/29 06:58:43;;;;;;;0.47;0.40;;;;;;;9.02;84.45;98606.19;4994407;28;20046;-74
2021/01/29 07:01:27;;;;;;;1.40;0.50;;;;;;;8.97;84.00;98595.41;4996730;28;20062;-74
2021/01/29 07:04:11;;;;;;;0.65;0.47;;;;;;;8.97;83.42;98608.59;4994043;28;20420;-74
2021/01/29 07:06:44;;;;;;;0.40;0.40;;;;;;;9.03;82.39;98637.63;4989121;28;20489;-74
2021/01/29 07:09:33;;;;;;;0.60;0.40;;;;;;;9.04;82.00;98646.38;4995662;28;20038;-74
2021/01/29 07:12:06;;;;;;;0.65;0.50;;;;;;;8.91;83.65;98655.78;4995395;28;20507;-74
2021/01/29 07:14:40;;;;;;;0.80;0.50;;;;;;;8.90;82.42;98663.88;4995347;28;20292;-74
2021/01/29 07:17:43;;;;;;;1.38;0.73;;;;;;;8.90;83.01;98666.50;4996861;28;20038;-74
2021/01/29 07:20:20;;;;;;;0.65;0.50;;;;;;;8.86;83.05;98671.31;5005222;28;20037;-74
2021/01/29 07:22:48;;;;;;;0.75;0.40;;;;;;;8.74;85.16;98685.97;4996641;28;20107;-74
2021/01/29 07:25:19;;;;;;;0.77;0.50;;;;;;;8.85;81.87;98672.31;4993522;28;20042;-74
2021/01/29 07:28:08;;;;;;;0.52;0.50;;;;;;;8.77;83.63;98683.00;4991406;28;20414;-76
2021/01/29 07:31:15;;;;;;;0.60;0.50;;;;;;;8.76;83.57;98685.81;4989660;28;20389;-76
2021/01/29 07:34:19;;;;;;;1.75;0.60;;;;;;;8.79;83.60;98691.50;4981437;28;20043;-75
2021/01/29 07:36:59;;;;;;;0.68;0.50;;;;;;;8.84;83.03;98691.78;4982032;28;20046;-75
2021/01/29 07:39:50;;;;;;;0.73;0.57;;;;;;;8.77;84.09;98688.25;4991429;28;20455;-76
2021/01/29 07:42:49;;;;;;;1.20;0.60;;;;;;;8.86;82.78;98691.59;4988503;28;20053;-76
2021/01/29 07:45:35;;;;;;;2.47;0.60;;;;;;;8.81;83.68;98688.69;4990860;28;20035;-75
2021/01/29 07:48:19;;;;;;;1.15;0.70;;;;;;;8.88;82.38;98698.31;4990524;28;20043;-75
2021/01/29 07:50:49;;;;;;;0.77;0.70;;;;;;;8.90;82.92;98708.69;4984361;28;20046;-76
2021/01/29 07:53:37;;;;;;;0.93;0.57;;;;;;;9.00;81.43;98703.09;4989665;28;20315;-75
2021/01/29 07:56:28;;;;;;;0.95;0.60;;;;;;;8.99;82.46;98706.75;4991358;28;20034;-76
2021/01/29 07:59:12;;;;;;;0.93;0.57;;;;;;;9.08;82.13;98714.34;4991365;28;20042;-75
2021/01/29 08:02:12;;;;;;;0.68;0.40;;;;;;;9.18;82.76;98707.97;4990764;28;20038;-75
2021/01/29 08:04:55;;;;;;;0.95;0.50;;;;;;;9.23;83.16;98709.03;4989848;28;20030;-74
2021/01/29 08:07:34;;;;;;;0.98;0.52;;;;;;;9.33;81.96;98706.06;4988359;28;20453;-75
2021/01/29 08:10:02;;;;;;;1.02;0.50;;;;;;;9.32;81.28;98705.28;5000987;28;20062;-74
2021/01/29 08:12:31;;;;;;;0.52;0.40;;;;;;;9.48;81.13;98711.28;4991321;28;20320;-74
2021/01/29 08:15:05;;;;;;;0.82;0.43;;;;;;;9.59;80.59;98705.50;4996562;28;20100;-74
2021/01/29 08:18:22;;;;;;;0.40;0.40;;;;;;;9.61;79.95;98710.59;4991311;28;20050;-74
2021/01/29 08:20:53;;;;;;;0.40;0.40;;;;;;;9.60;80.83;98704.47;4971379;28;20042;-75
2021/01/29 08:24:06;;;;;;;0.43;0.40;;;;;;;9.69;80.29;98705.16;4991006;28;20503;-74
2021/01/29 08:26:40;;;;;;;0.38;0.30;;;;;;;9.74;81.00;98711.50;4950980;28;20050;-75
2021/01/29 08:29:20;;;;;;;0.63;0.40;;;;;;;9.77;80.19;98716.41;4962369;28;145916;-75
2021/01/29 08:33:00;;;;;;;0.40;0.40;;;;;;;9.85;79.03;98720.75;5052603;27;20356;-75
2021/01/29 08:35:57;;;;;;;0.63;0.63;;;;;;;9.85;80.26;98719.94;5066042;28;20048;-75
2021/01/29 08:38:34;;;;;;;0.68;0.40;;;;;;;9.98;79.97;98727.94;5065671;28;20040;-75
2021/01/29 08:41:22;;;;;;;1.75;0.40;;;;;;;9.98;79.61;98728.75;5066845;28;20025;-75
2021/01/29 08:44:09;;;;;;;0.73;0.43;;;;;;;10.09;79.42;98730.03;5064682;28;20472;-75
2021/01/29 08:46:43;;;;;;;0.82;0.50;;;;;;;10.10;81.58;98726.38;5065433;28;20036;-73
2021/01/29 08:49:43;;;;;;;2.15;0.70;;;;;;;10.19;78.99;98722.59;5066001;28;20060;-73
2021/01/29 08:52:21;;;;;;;1.15;0.50;;;;;;;10.24;78.32;98723.84;5065900;28;20120;-75
2021/01/29 08:54:56;;;;;;;1.30;0.52;;;;;;;10.16;80.75;98727.47;5059208;28;20040;-73
2021/01/29 08:58:01;;;;;;;1.83;0.68;;;;;;;10.03;80.74;98733.44;5066189;28;20056;-75
2021/01/29 09:00:32;;;;;;;4.90;0.65;;;;;;;10.00;81.38;98736.47;5063989;28;20043;-75
2021/01/29 09:02:57;;;;;;;;;;;;;;;10.07;80.44;98737.34;5068631;28;20052;-73
2021/01/29 09:05:26;;;;;;;2.20;0.70;;;;;;;10.16;79.51;98751.22;5070949;28;20276;-74
2021/01/29 09:08:01;;;;;;;1.40;0.60;;;;;;;10.11;80.66;98748.34;5066188;28;20039;-75
2021/01/29 09:10:57;;;;;;;2.00;0.80;;;;;;;10.18;78.64;98750.03;5064842;28;20485;-73
2021/01/29 09:13:25;;;;;;;2.47;0.77;;;;;;;10.25;78.83;98770.38;5064241;28;20041;-75
2021/01/29 09:16:20;;;;;;;3.00;0.80;;;;;;;10.38;76.99;98770.50;5065804;28;20045;-73
2021/01/29 09:18:58;;;;;;;2.95;0.80;;;;;;;10.33;77.68;98764.97;5059363;28;20037;-73
2021/01/29 09:21:44;;;;;;;2.40;0.90;;;;;;;10.30;76.12;98778.59;5065963;28;20112;-73
2021/01/29 09:24:24;;;;;;;3.00;1.00;;;;;;;10.43;74.82;98769.91;5065250;28;20045;-73
2021/01/29 09:27:04;;;;;;;2.38;1.05;;;;;;;10.23;77.31;98786.44;5064532;28;20056;-73
2021/01/29 09:29:38;;;;;;;5.05;1.20;;;;;;;10.26;76.71;98780.75;5064955;28;20037;-73
2021/01/29 09:32:07;;;;;;;4.97;0.90;;;;;;;10.28;77.02;98797.25;5060398;28;20037;-73
2021/01/29 09:34:40;;;;;;;3.53;1.02;;;;;;;10.27;73.38;98790.28;5066943;28;20033;-73
2021/01/29 09:37:10;;;;;;;6.88;1.23;;;;;;;10.35;72.78;98800.78;5064379;28;20037;-73
2021/01/29 09:39:44;;;;;;;4.17;1.17;;;;;;;10.53;72.07;98799.44;5062213;28;20166;-73
2021/01/29 09:42:14;;;;;;;3.60;1.23;;;;;;;10.46;72.97;98811.81;5058099;28;20276;-73
2021/01/29 09:45:15;;;;;;;5.15;1.20;;;;;;;10.58;70.44;98803.16;5051478;28;20044;-73
2021/01/29 09:47:44;;;;;;;6.38;1.35;;;;;;;10.50;73.14;98805.13;5036507;28;20033;-73
2021/01/29 09:50:18;;;;;;;6.63;1.30;;;;;;;10.57;71.74;98817.38;5051860;28;20094;-73
2021/01/29 09:53:05;;;;;;;5.15;1.52;;;;;;;10.66;71.89;98811.94;5044459;28;20025;-72
2021/01/29 09:55:48;;;;;;;6.30;1.50;;;;;;;10.71;69.60;98809.53;5046750;28;20752;-72
2021/01/29 09:58:25;;;;;;;5.60;1.38;;;;;;;10.63;70.43;98815.78;5049070;28;20052;-72
2021/01/29 10:01:08;;;;;;;4.38;1.25;;;;;;;10.53;71.34;98829.34;5045445;28;20033;-72
2021/01/29 10:03:40;;;;;;;6.93;1.35;;;;;;;10.50;72.24;98831.56;5057820;28;20037;-72
2021/01/29 10:06:11;;;;;;;5.53;1.35;;;;;;;10.61;69.26;98815.16;5050717;28;20029;-76
2021/01/29 10:08:41;;;;;;;7.18;1.75;;;;;;;10.57;68.45;98812.09;5052314;28;20139;-73
2021/01/29 10:11:10;;;;;;;7.32;1.60;;;;;;;10.48;68.62;98828.28;5051522;28;20544;-72
2021/01/29 10:14:12;;;;;;;5.65;1.40;;;;;;;10.31;72.22;98836.50;5050162;28;20448;-73
2021/01/29 10:16:54;;;;;;;5.45;1.40;;;;;;;10.25;71.89;98831.97;5067023;28;20033;-73
2021/01/29 10:19:41;;;;;;;6.50;1.77;;;;;;;10.17;72.83;98829.44;5052789;28;20043;-73
2021/01/29 10:22:18;;;;;;;5.03;1.30;;;;;;;10.26;69.93;98833.59;5051759;28;20429;-74
2021/01/29 10:24:59;;;;;;;4.57;1.45;;;;;;;10.19;69.73;98838.00;5054418;28;20057;-72
2021/01/29 10:27:51;;;;;;;5.28;1.40;;;;;;;10.19;70.46;98845.91;5051909;28;20124;-72
2021/01/29 10:30:25;;;;;;;6.00;1.35;;;;;;;10.29;69.44;98842.97;5051116;28;20033;-72
2021/01/29 10:33:12;;;;;;;9.77;1.60;;;;;;;10.25;68.89;98842.53;5059518;28;20127;-74
2021/01/29 10:35:54;;;;;;;6.57;1.67;;;;;;;10.30;69.76;98849.91;5045288;28;20029;-72
2021/01/29 10:38:44;;;;;;;5.57;1.92;;;;;;;10.29;70.51;98851.72;5052746;28;20032;-72
2021/01/29 10:41:32;;;;;;;7.43;1.35;;;;;;;10.15;72.19;98860.50;5052782;28;20033;-72
2021/01/29 10:44:02;;;;;;;8.73;2.80;;;;;;;10.27;70.66;98853.69;5039728;28;20037;-73
2021/01/29 10:46:57;;;;;;;5.22;1.60;;;;;;;10.32;69.58;98864.56;5052044;28;20036;-72
2021/01/29 10:49:28;;;;;;;6.80;1.88;;;;;;;10.29;70.30;98856.19;5052013;28;20036;-72
2021/01/29 10:51:53;;;;;;;5.53;1.15;;;;;;;10.23;71.21;98862.22;5051650;28;20040;-73
2021/01/29 10:54:19;;;;;;;5.87;1.40;;;;;;;10.26;70.38;98853.91;5050835;28;20033;-72
2021/01/29 10:57:01;;;;;;;6.25;1.67;;;;;;;10.25;70.30;98862.81;5046272;28;20033;-73
2021/01/29 11:00:00;;;;;;;5.93;1.80;;;;;;;10.23;70.28;98886.00;5052471;28;20067;-72
2021/01/29 11:02:46;;;;;;;6.88;2.08;;;;;;;10.39;68.96;98862.78;5050660;28;20207;-73
2021/01/29 11:05:41;;;;;;;3.35;1.10;;;;;;;10.36;70.29;98867.63;5066654;28;20025;-73
2021/01/29 11:08:28;;;;;;;6.22;1.45;;;;;;;10.30;70.02;98879.78;5048294;28;20514;-73
2021/01/29 11:11:03;;;;;;;7.57;1.40;;;;;;;10.27;70.28;98880.13;5051217;28;20085;-73
2021/01/29 11:13:54;;;;;;;4.63;1.05;;;;;;;10.30;69.57;98882.44;5051958;28;20025;-72
2021/01/29 11:16:34;;;;;;;3.03;1.00;;;;;;;10.28;70.92;98871.22;5042742;28;20036;-73
2021/01/29 11:19:02;;;;;;;5.60;0.98;;;;;;;10.29;69.28;98875.50;5051040;28;20034;-73
2021/01/29 11:21:58;;;;;;;6.53;1.52;;;;;;;10.30;71.26;98874.50;5051456;28;20033;-73
2021/01/29 11:24:58;;;;;;;4.35;1.30;;;;;;;10.36;69.64;98884.28;5050140;28;20071;-72
2021/01/29 11:27:40;;;;;;;5.63;1.25;;;;;;;10.34;69.62;98869.63;4988457;28;20041;-72
2021/01/29 11:30:18;;;;;;;5.35;1.75;;;;;;;10.48;67.60;98870.56;5044062;28;20056;-72
2021/01/29 11:32:59;;;;;;;3.85;1.10;;;;;;;10.44;67.96;98878.06;5052644;28;20098;-72
2021/01/29 11:35:50;;;;;;;4.55;1.20;;;;;;;10.37;68.75;98883.31;5049702;28;20033;-73
2021/01/29 11:38:18;;;;;;;;;;;;;;;10.44;67.09;98872.78;5050312;28;20086;-73
2021/01/29 11:40:59;;;;;;;3.28;0.93;;;;;;;10.44;67.88;98866.66;5050064;28;19920;-72
2021/01/29 11:43:32;;;;;;;6.63;1.40;;;;;;;10.40;67.89;98877.63;5048503;28;20124;-73
2021/01/29 11:46:25;;;;;;;6.15;1.50;;;;;;;10.51;66.52;98865.72;5044798;28;20091;-72
2021/01/29 11:48:57;;;;;;;4.38;1.30;;;;;;;10.50;66.72;98874.66;5043712;28;20089;-72
2021/01/29 11:51:31;;;;;;;3.92;1.25;;;;;;;10.54;65.86;98867.16;5049628;28;20029;-72
2021/01/29 11:53:56;;;;;;;4.05;1.50;;;;;;;10.54;66.65;98878.56;5049372;28;20045;-72
2021/01/29 11:56:37;;;;;;;6.95;1.92;;;;;;;10.54;67.25;98867.16;5047414;28;20044;-72
2021/01/29 11:59:07;;;;;;;7.37;1.80;;;;;;;10.58;65.89;98866.59;5049423;28;20065;-73
2021/01/29 12:01:39;;;;;;;4.03;1.08;;;;;;;10.59;65.84;98854.19;5049952;28;20033;-73
2021/01/29 12:04:11;;;;;;;4.55;1.20;;;;;;;10.67;63.43;98866.44;5055767;28;20037;-72
2021/01/29 12:06:48;;;;;;;5.50;1.27;;;;;;;10.69;64.38;98861.78;5040713;28;20580;-72
2021/01/29 12:09:37;;;;;;;3.60;1.23;;;;;;;10.64;65.79;98854.44;5049619;28;20037;-72
2021/01/29 12:12:10;;;;;;;5.47;1.27;;;;;;;10.68;65.38;98850.41;5055425;28;20112;-73
2021/01/29 12:15:14;;;;;;;6.93;1.42;;;;;;;10.67;65.13;98858.50;5043807;28;20040;-73
2021/01/29 12:17:49;;;;;;;7.72;2.20;;;;;;;10.65;65.20;98853.41;5041744;28;20067;-73
2021/01/29 12:20:22;;;;;;;5.82;1.60;;;;;;;10.68;64.65;98852.19;5047088;28;20039;-72
2021/01/29 12:23:04;;;;;;;4.78;1.42;;;;;;;10.60;65.66;98855.81;5048304;28;20041;-72
2021/01/29 12:26:02;;;;;;;7.85;2.05;;;;;;;10.68;65.01;98855.69;5048784;28;20072;-73
2021/01/29 12:28:31;;;;;;;5.95;1.50;;;;;;;10.60;64.95;98855.81;5047892;28;20037;-73
2021/01/29 12:31:11;;;;;;;6.43;1.50;;;;;;;10.52;66.90;98855.97;5049193;28;20037;-73
2021/01/29 12:33:56;;;;;;;4.07;1.40;;;;;;;10.35;68.87;98869.47;5043200;28;20493;-73
2021/01/29 12:36:26;;;;;;;11.40;1.77;;;;;;;10.33;69.64;98866.19;5048947;28;20037;-72
2021/01/29 12:39:08;;;;;;;6.68;1.23;;;;;;;10.12;72.44;98867.00;5046990;28;20037;-73